Beatty, Nevada Weather observations

Data are for observation ending at time listed.
 Day   Time    Ave.   Ave.  Ave.  Vector   Max.   Stn.    Total    Solar   Ave.  
  of    of     Air    Rel.  Wind   Wind    Wind   Baro.  Precip.   Rad.    Soil  
Year   Day     Temp.  Hum.  Speed  Dir.    Gust   Pres.                    Temp. 
2015   (PST)    F      %     mph   deg.    mph     mb.     in.     W/m2     F   
------------------------------------------------------------------------------
  30    2:20   51.0    66    1.9    22      4.2   902.5    0.00       0    53.7
  30    2:30   51.1    65    1.7    67      4.3   902.4    0.00       0    53.7
  30    2:40   51.0    65    1.6    67      5.0   902.2    0.00       0    53.7
  30    2:50   50.7    67    1.7    61      4.4   902.1    0.00       0    53.6
  30    3:00   50.5    68    2.1    58      6.6   902.0    0.00       0    53.6
  30    3:10   50.3    68    2.8    74      7.4   901.8    0.00       0    53.6
  30    3:20   50.2    68    2.6    60      6.6   901.7    0.00       0    53.6
  30    3:30   49.8    70    1.9    35      5.9   901.6    0.00       0    53.6
  30    3:40   49.5    72    2.6    42      6.7   901.5    0.00       0    53.6
  30    3:50   49.9    70    4.7    10     14.2   901.5    0.00       0    53.6
  30    4:00   49.4    73    7.0     6     12.9   901.4    0.00       0    53.6
  30    4:10   48.9    76    6.3     7     12.5   901.3    0.00       0    53.6
  30    4:20   48.9    75    4.4     7      8.6   901.3    0.00       0    53.6
  30    4:30   49.0    75    3.9    11      9.0   901.2    0.00       0    53.6
  30    4:40   48.8    75    4.1     7      7.7   901.1    0.00       0    53.5
  30    4:50   48.7    76    4.0     6      7.9   901.1    0.00       0    53.5
  30    5:00   48.7    75    4.8     6      8.3   901.1    0.00       0    53.5
  30    5:10   48.7    74    5.0     8      8.5   901.1    0.00       0    53.5
  30    5:20   48.7    73    4.6     7      9.5   901.0    0.00       0    53.5
  30    5:30   48.7    73    5.9     9     11.0   900.9    0.00       0    53.5
  30    5:40   48.8    72    7.5     3     11.4   900.8    0.00       0    53.5
  30    5:50   48.7    72    7.7     2     12.2   900.8    0.00       0    53.5
  30    6:00   48.6    72    8.1     4     12.2   900.6    0.00       0    53.5
  30    6:10   49.0    70    9.0     5     14.7   900.6    0.00       0    53.5
  30    6:20   49.2    69    9.7     6     15.1   900.6    0.00       0    53.4
  30    6:30   49.3    68    9.3     4     16.7   900.5    0.00       0    53.4
  30    6:40   49.3    68    8.7     4     13.8   900.6    0.00       0    53.4
  30    6:50   49.2    68    8.4     8     13.4   900.7    0.00       0    53.4
  30    7:00   49.4    67    7.9     8     14.2   900.7    0.00       0    53.4
  30    7:10   49.4    67    7.8     4     11.7   900.6    0.00       0    53.4
  30    7:20   49.2    69    8.6     3     14.8   900.6    0.00       4    53.3
  30    7:30   49.2    70    8.5     2     13.9   900.6    0.00       6    53.3
  30    7:40   49.1    71    8.9     2     13.3   900.6    0.00       9    53.3
  30    7:50   48.9    72    8.8     2     14.4   900.7    0.00      18    53.3
  30    8:00   48.9    72    8.1   358     13.9   900.6    0.00      32    53.2
  30    8:10   49.0    72    9.1     1     15.1   900.6    0.00      43    53.2
  30    8:20   49.1    72    8.1     2     14.5   900.6    0.00      45    53.1
  30    8:30   49.3    71    8.3     6     13.3   900.6    0.00      50    53.1
  30    8:40   49.5    70    8.6     7     12.5   900.5    0.00      51    53.1
  30    8:50   49.5    69    8.1     5     12.3   900.5    0.00      53    53.0
  30    9:00   49.6    69    8.1     2     12.7   900.4    0.00      74    53.0
  30    9:10   49.9    68    8.7     0     13.5   900.3    0.00      99    53.0
  30    9:20   50.2    68    7.8     5     14.4   900.4    0.00     117    53.0
  30    9:30   50.6    66    7.9     8     14.0   900.4    0.00     130    52.9
  30    9:40   50.8    66    8.2     7     13.1   900.3    0.00     125    52.9
  30    9:50   51.0    65    6.8     7     13.0   900.3    0.00     152    52.8
  30   10:00   51.7    64    5.7     9     13.2   900.3    0.00     168    52.8
  30   10:10   52.0    63    7.7   360     13.2   900.2    0.00     163    52.8
  30   10:20   52.4    62    6.3    11     12.5   900.0    0.00     195    52.8
  30   10:30   52.8    60    7.2     5     13.2   899.8    0.00     218    52.8
  30   10:40   53.1    60    7.3     5     13.8   899.6    0.00     235    52.8
  30   10:50   53.6    59    6.6     6     15.9   899.6    0.00     263    52.7
  30   11:00   54.0    56    6.0    26     13.1   899.4    0.00     304    52.7
  30   11:10   54.6    56    6.2    20     14.0   899.2    0.00     276    52.7
  30   11:20   54.5    56    6.2    16     14.5   899.0    0.00     221    52.6
  30   11:30   54.8    54    5.9    28     15.3   898.8    0.00     193    52.6
  30   11:40   55.0    53    6.2    11     14.0   898.6    0.00     222    52.6
  30   11:50   55.3    53    7.8     8     14.3   898.4    0.00     248    52.6
  30   12:00   55.1    52    9.9     1     15.6   898.2    0.00     218    52.6
  30   12:10   54.7    53   10.0     6     16.0   898.1    0.00     162    52.6
  30   12:20   55.1    52    5.7    19     12.5   897.9    0.00     136    52.6
  30   12:30   55.1    52    7.8     5     15.1   897.7    0.00     135    52.6
  30   12:40   55.1    53    8.6     4     14.9   897.5    0.00     138    52.5
  30   12:50   55.2    52    6.3    22     14.6   897.4    0.00     148    52.5
  30   13:00   55.5    52    5.9    28     11.8   897.1    0.00     163    52.5
  30   13:10   55.8    53    3.9    32     11.2   896.9    0.00     185    52.5
  30   13:20   56.2    53    3.9    46      8.6   896.7    0.00     209    52.5
  30   13:30   56.4    53    3.8    56      8.8   896.6    0.00     197    52.5
  30   13:40   56.4    53    3.6    57     11.4   896.5    0.00     150    52.5
  30   13:50   56.2    53    4.6    42      9.9   896.4    0.00     132    52.5
  30   14:00   55.7    55    4.6    18      8.3   896.5    0.00      66    52.5
  30   14:10   54.4    63    4.2    19     10.7   896.5    0.00      70    52.5
  30   14:20   54.3    61    3.5    24      6.4   896.4    0.00      99    52.6
  30   14:30   54.9    56    4.2    38     10.7   896.3    0.00     101    52.6
  30   14:40   54.8    57    4.6    61     10.8   896.3    0.00      91    52.6
  30   14:50   54.4    56    4.6    69     12.3   896.2    0.00      82    52.6
  30   15:00   54.3    56    3.9    60     11.8   896.1    0.00      75    52.6
  30   15:10   54.2    56    4.2    52     11.2   896.1    0.00      64    52.6
  30   15:20   54.2    55    3.6    26      9.1   896.1    0.00      61    52.6
  30   15:30   54.0    55    5.9    26     11.6   896.1    0.00      51    52.6
  30   15:40   53.6    56    6.0    26     13.6   896.2    0.00      37    52.6
  30   15:50   53.1    59    5.8    28     13.4   896.3    0.00      26    52.6
  30   16:00   52.7    60    4.1    24     10.3   896.4    0.00      21    52.7
  30   16:10   52.5    61    3.9    26      8.7   896.5    0.00      17    52.7
  30   16:20   52.1    64    2.7    14      5.8   896.5    0.00      13    52.7
  30   16:30   51.8    66    2.8    22      5.3   896.6    0.00       9    52.7
  30   16:40   51.3    68    2.8    22      6.9   896.6    0.00       7    52.7
  30   16:50   50.6    72    2.0    16      5.0   896.6    0.01       4    52.7
  30   17:00   49.5    80    2.3   337      4.8   896.7    0.01       3    52.7
  30   17:10   48.9    83    1.6   316      2.7   896.7    0.01       2    52.7
  30   17:20   48.6    85    1.3   321      2.2   896.7    0.00       0    52.7
  30   17:30   48.5    86    0.6   328      1.6   896.8    0.01       0    52.7
  30   17:40   48.2    86    1.1   324      2.7   897.0    0.00       0    52.7
  30   17:50   48.4    84    1.8    53      3.3   897.0    0.01       0    52.7
  30   18:00   48.7    83    0.6    68      2.9   897.0    0.00       0    52.7
  30   18:10   48.5    83    1.6     5      3.1   897.0    0.00       0    52.7
  30   18:20   48.2    85    2.0   348      3.7   896.9    0.01       0    52.7
  30   18:30   47.9    86    3.1   360      5.2   896.9    0.00       0    52.7
  30   18:40   47.9    85    2.4     0      3.8   897.0    0.00       0    52.7
  30   18:50   47.9    85    1.7   354      3.4   897.1    0.01       0    52.7
  30   19:00   47.8    86    1.8   335      2.8   897.1    0.01       0    52.7
  30   19:10   47.7    85    1.4     0      2.1   897.1    0.01       0    52.7
  30   19:20   47.9    86    0.8    63      2.0   897.2    0.01       0    52.8
  30   19:30   47.6    87    1.2    74      3.6   897.2    0.02       0    52.7
  30   19:40   47.6    87    0.5    61      1.5   897.2    0.01       0    52.8
  30   19:50   47.6    87    0.1    34      1.8   897.2    0.01       0    52.7
  30   20:00   47.4    89    1.3   283      3.5   897.2    0.01       0    52.7
  30   20:10   47.4    87    2.1   354      4.5   897.3    0.01       0    52.7
  30   20:20   47.4    87    1.6   360      3.4   897.3    0.01       0    52.8
  30   20:30   47.4    86    3.3     2      8.9   897.3    0.01       0    52.7
  30   20:40   48.3    79    5.2    10      9.4   897.4    0.01       0    52.7
  30   20:50   48.5    77    6.3     5     11.4   897.4    0.00       0    52.7
  30   21:00   48.5    74    8.7     8     13.3   897.4    0.00       0    52.7
  30   21:10   48.3    74    7.8     6     13.6   897.4    0.01       0    52.7
  30   21:20   48.3    74    8.1     5     14.0   897.4    0.01       0    52.7
  30   21:30   48.1    76    5.6     9     10.4   897.4    0.01       0    52.7
  30   21:40   48.0    77    6.3     6     10.2   897.4    0.01       0    52.7
  30   21:50   48.1    77    7.3     7     13.4   897.4    0.00       0    52.7
  30   22:00   48.0    76    8.6     4     14.0   897.5    0.01       0    52.7
  30   22:10   47.7    76    9.5     5     15.5   897.4    0.01       0    52.7
  30   22:20   47.6    77    8.5     8     12.6   897.4    0.00       0    52.7
  30   22:30   48.0    74   10.0     5     15.8   897.4    0.00       0    52.6
  30   22:40   48.1    73   10.4     4     17.0   897.3    0.01       0    52.6
  30   22:50   48.1    72    9.5     5     14.4   897.3    0.00       0    52.6
  30   23:00   48.2    72    8.3   358     17.0   897.3    0.00       0    52.6
  30   23:10   48.1    72    8.3     1     14.5   897.4    0.00       0    52.6
  30   23:20   48.0    71    9.0   358     14.1   897.4    0.00       0    52.6
  30   23:30   48.0    71    9.4     2     16.4   897.4    0.01       0    52.5
  30   23:40   47.8    71   11.2     0     16.9   897.4    0.00       0    52.5
  30   23:50   47.6    72   10.2   358     18.1   897.5    0.01       0    52.5
  31    0:00   47.3    73   10.2     5     16.4   897.6    0.01       0    52.4
  31    0:10   47.0    75    8.4     8     14.1   897.6    0.01       0    52.4
  31    0:20   46.9    75    8.8     7     15.8   897.6    0.00       0    52.4
  31    0:30   47.1    73   11.1     6     17.3   897.5    0.01       0    52.3
  31    0:40   47.0    73   12.3     2     19.3   897.5    0.00       0    52.3
  31    0:50   46.9    72   13.3     3     21.6   897.4    0.01       0    52.2
  31    1:00   46.8    72   12.3     6     19.3   897.4    0.00       0    52.2
  31    1:10   46.6    73   11.8     4     17.3   897.4    0.00       0    52.2
  31    1:20   46.6    72   12.5     5     19.6   897.4    0.00       0    52.1
  31    1:30   46.6    72   12.9     6     22.4   897.5    0.00       0    52.1
  31    1:40   46.6    72   12.3     7     20.0   897.5    0.00       0    52.0
  31    1:50   46.7    71   12.7     6     19.6   897.5    0.00       0    52.0
  31    2:00   46.5    72   13.1     3     20.0   897.5    0.00       0    51.9
  31    2:10   46.3    73   13.8     4     20.8   897.5    0.00       0    51.9

Return to Beatty, Nevada graphs page.


Western Regional Climate Center,wrcc@dri.edu